createdAt,value
2023-03-11T00:03:28.494Z,2.60
2023-03-11T00:07:40.956Z,2.41
2023-03-11T00:11:53.433Z,2.45
2023-03-11T00:16:06.499Z,2.43
2023-03-11T00:20:26.724Z,2.44
2023-03-11T00:24:39.212Z,2.30
2023-03-11T00:28:51.677Z,2.38
2023-03-11T00:33:04.872Z,2.34
2023-03-11T00:37:17.269Z,2.32
2023-03-11T00:41:30.247Z,2.33
2023-03-11T00:45:43.034Z,2.14
2023-03-11T00:49:55.503Z,2.08
2023-03-11T00:54:07.948Z,2.13
2023-03-11T00:58:20.424Z,2.11
2023-03-11T01:02:32.877Z,2.02
2023-03-11T01:06:46.400Z,1.99
2023-03-11T01:11:01.243Z,2.04
2023-03-11T01:15:34.810Z,2.03
2023-03-11T01:19:47.334Z,1.86
2023-03-11T01:23:59.755Z,1.84
2023-03-11T01:28:12.624Z,2.02
2023-03-11T01:32:25.158Z,1.86
2023-03-11T01:36:37.632Z,1.96
2023-03-11T01:40:52.684Z,1.86
2023-03-11T01:46:03.346Z,1.94
2023-03-11T01:50:16.118Z,1.99
2023-03-11T01:54:34.924Z,1.88
2023-03-11T01:58:54.908Z,1.85
2023-03-11T02:03:15.014Z,1.75
2023-03-11T02:07:27.524Z,1.74
2023-03-11T02:11:40.123Z,1.62
2023-03-11T02:15:53.116Z,1.65
2023-03-11T02:20:43.790Z,1.61
2023-03-11T02:25:54.680Z,1.52
2023-03-11T02:30:08.579Z,1.55
2023-03-11T02:34:31.583Z,1.50
2023-03-11T02:38:44.143Z,1.52
2023-03-11T02:43:07.923Z,1.45
2023-03-11T02:47:20.390Z,1.32
2023-03-11T02:51:32.889Z,1.37
2023-03-11T02:55:45.356Z,1.44
2023-03-11T02:59:57.817Z,1.26
2023-03-11T03:04:14.040Z,1.26
2023-03-11T03:08:26.617Z,1.28
2023-03-11T03:12:39.178Z,1.23
2023-03-11T03:16:58.342Z,1.20
2023-03-11T03:21:11.050Z,1.17
2023-03-11T03:25:23.561Z,1.00
2023-03-11T03:29:36.022Z,0.97
2023-03-11T03:33:48.496Z,0.89
2023-03-11T03:38:04.224Z,0.88
2023-03-11T03:42:16.663Z,0.68
2023-03-11T03:46:29.377Z,0.63
2023-03-11T03:50:41.900Z,0.58
2023-03-11T03:54:54.415Z,0.61
2023-03-11T03:59:07.034Z,0.63
2023-03-11T04:03:19.529Z,0.66
2023-03-11T04:07:32.000Z,0.52
2023-03-11T04:11:54.501Z,0.61
2023-03-11T04:16:08.804Z,0.56
2023-03-11T04:20:21.476Z,0.51
2023-03-11T04:24:33.943Z,0.53
2023-03-11T04:28:51.802Z,0.48
2023-03-11T04:33:04.396Z,0.39
2023-03-11T04:37:16.869Z,0.55
2023-03-11T04:41:29.335Z,0.40
2023-03-11T04:45:52.387Z,0.45
2023-03-11T04:50:05.791Z,0.55
2023-03-11T04:54:18.238Z,0.48
2023-03-11T04:58:30.698Z,0.44
2023-03-11T05:02:43.694Z,0.59
2023-03-11T05:06:56.192Z,0.72
2023-03-11T05:11:09.633Z,0.76
2023-03-11T05:15:32.368Z,0.79
2023-03-11T05:19:44.863Z,0.82
2023-03-11T05:23:57.290Z,0.79
2023-03-11T05:28:19.765Z,0.79
2023-03-11T05:32:32.457Z,0.78
2023-03-11T05:36:45.578Z,0.80
2023-03-11T05:40:58.051Z,0.77
2023-03-11T05:45:11.288Z,0.73
2023-03-11T05:49:24.026Z,0.79
2023-03-11T05:53:36.803Z,0.78
2023-03-11T05:57:53.064Z,0.76
2023-03-11T06:02:05.649Z,0.71
2023-03-11T06:06:18.586Z,0.55
2023-03-11T06:10:31.150Z,0.66
2023-03-11T06:14:43.667Z,0.61
2023-03-11T06:18:56.569Z,0.63
2023-03-11T06:23:09.192Z,0.57
2023-03-11T06:27:21.627Z,0.61
2023-03-11T06:31:38.218Z,0.70
2023-03-11T06:35:58.932Z,0.90
2023-03-11T06:40:12.097Z,0.68
2023-03-11T06:44:26.366Z,0.70
2023-03-11T06:48:39.129Z,0.89
2023-03-11T06:52:51.605Z,1.04
2023-03-11T06:57:04.458Z,0.76
2023-03-11T07:01:23.800Z,0.88
2023-03-11T07:05:36.379Z,0.95
2023-03-11T07:09:48.836Z,0.96
2023-03-11T07:14:01.297Z,1.04
2023-03-11T07:18:23.728Z,0.98
2023-03-11T07:22:46.283Z,0.92
2023-03-11T07:26:58.801Z,0.90
2023-03-11T07:31:16.601Z,0.95
2023-03-11T07:35:29.233Z,0.71
2023-03-11T07:39:41.745Z,0.71
2023-03-11T07:44:00.711Z,0.83
2023-03-11T07:48:13.957Z,0.80
2023-03-11T07:52:26.438Z,1.01
2023-03-11T07:56:39.260Z,1.35
2023-03-11T08:00:52.380Z,0.76
2023-03-11T08:05:05.845Z,1.17
2023-03-11T08:09:18.650Z,1.52
2023-03-11T08:13:31.084Z,1.38
2023-03-11T08:17:43.561Z,1.96
2023-03-11T08:21:56.080Z,1.58
2023-03-11T08:26:12.443Z,1.53
2023-03-11T08:30:25.414Z,1.24
2023-03-11T08:34:40.226Z,1.20
2023-03-11T08:38:53.918Z,1.13
2023-03-11T08:43:06.660Z,1.71
2023-03-11T08:47:19.214Z,1.72
2023-03-11T08:51:34.383Z,1.89
2023-03-11T08:55:46.825Z,2.14
2023-03-11T08:59:59.445Z,2.45
2023-03-11T09:04:12.838Z,2.15
2023-03-11T09:08:27.038Z,2.50
2023-03-11T09:12:39.807Z,2.08
2023-03-11T09:16:52.341Z,2.36
2023-03-11T09:21:05.073Z,2.90
2023-03-11T09:25:17.838Z,2.66
2023-03-11T09:29:30.625Z,3.42
2023-03-11T09:33:44.429Z,3.83
2023-03-11T09:37:57.082Z,2.49
2023-03-11T09:43:13.496Z,2.81
2023-03-11T09:48:02.951Z,3.11
2023-03-11T09:52:20.524Z,2.72
2023-03-11T09:56:36.384Z,2.58
2023-03-11T10:00:52.927Z,3.35
2023-03-11T10:05:23.018Z,4.14
2023-03-11T10:09:49.787Z,4.16
2023-03-11T10:14:44.304Z,3.47
2023-03-11T10:19:28.969Z,4.67
2023-03-11T10:24:16.908Z,4.70
2023-03-11T10:28:53.825Z,5.37
2023-03-11T10:34:05.102Z,5.31
2023-03-11T10:38:36.784Z,3.39
2023-03-11T10:42:50.457Z,2.79
2023-03-11T10:47:23.758Z,3.76
2023-03-11T10:51:36.918Z,4.54
2023-03-11T10:55:56.487Z,3.39
2023-03-11T11:00:13.117Z,2.87
2023-03-11T11:04:41.534Z,3.62
2023-03-11T11:09:11.799Z,3.99
2023-03-11T11:13:31.973Z,3.75
2023-03-11T11:17:48.334Z,3.91
2023-03-11T11:22:06.230Z,3.39
2023-03-11T11:26:28.834Z,3.75
2023-03-11T11:31:07.361Z,5.02
2023-03-11T11:35:22.903Z,4.09
2023-03-11T11:39:52.268Z,5.03
2023-03-11T11:44:07.147Z,4.94
2023-03-11T11:48:35.115Z,4.49
2023-03-11T11:52:58.392Z,3.50
2023-03-11T11:57:23.533Z,4.18
2023-03-11T12:01:59.192Z,4.42
2023-03-11T12:06:57.892Z,4.98
2023-03-11T12:11:20.932Z,3.29
2023-03-11T12:15:46.953Z,4.01
2023-03-11T12:20:12.104Z,4.38
2023-03-11T12:24:52.302Z,5.86
2023-03-11T12:29:26.949Z,5.47
2023-03-11T12:33:52.374Z,3.57
2023-03-11T12:38:14.065Z,3.54
2023-03-11T12:42:41.163Z,4.64
2023-03-11T12:47:03.351Z,4.84
2023-03-11T12:51:38.247Z,5.20
2023-03-11T12:56:21.965Z,4.93
2023-03-11T13:01:13.421Z,4.24
2023-03-11T13:06:08.346Z,6.09
2023-03-11T13:10:41.589Z,5.90
2023-03-11T13:15:19.454Z,5.74
2023-03-11T13:19:32.848Z,4.69
2023-03-11T13:23:45.376Z,7.26
2023-03-11T13:28:08.933Z,4.71
2023-03-11T13:32:55.111Z,4.86
2023-03-11T13:37:31.279Z,6.07
2023-03-11T13:41:45.588Z,6.29
2023-03-11T13:46:07.871Z,5.92
2023-03-11T13:50:31.099Z,6.84
2023-03-11T13:54:50.220Z,6.22
2023-03-11T13:59:34.506Z,6.80
2023-03-11T14:03:49.035Z,6.82
2023-03-11T14:08:24.206Z,7.26
2023-03-11T14:12:37.629Z,6.44
2023-03-11T14:16:50.190Z,7.66
2023-03-11T14:21:07.486Z,6.09
2023-03-11T14:25:25.456Z,4.95
2023-03-11T14:29:41.260Z,5.15
2023-03-11T14:34:14.665Z,8.00
2023-03-11T14:38:45.167Z,6.76
2023-03-11T14:54:54.343Z,5.05
2023-03-11T15:05:43.105Z,4.80
2023-03-11T15:09:57.122Z,4.41
2023-03-11T15:14:32.722Z,4.62
2023-03-11T15:18:45.223Z,4.46
2023-03-11T15:23:02.126Z,4.40
2023-03-11T15:27:44.654Z,4.06
2023-03-11T15:31:58.304Z,4.18
2023-03-11T15:36:40.216Z,4.42
2023-03-11T15:40:59.388Z,3.88
2023-03-11T15:45:17.334Z,4.03
2023-03-11T15:49:31.256Z,3.78
2023-03-11T15:53:43.701Z,3.60
2023-03-11T15:58:20.883Z,3.58
2023-03-11T16:02:33.765Z,3.45
2023-03-11T16:06:59.471Z,3.58
2023-03-11T16:11:19.592Z,3.86
2023-03-11T16:15:36.477Z,3.67
2023-03-11T16:19:55.410Z,3.49
2023-03-11T16:24:09.295Z,3.51
2023-03-11T16:28:21.877Z,3.48
2023-03-11T16:32:34.403Z,3.52
2023-03-11T16:36:48.254Z,3.29
2023-03-11T16:41:03.283Z,3.24
2023-03-11T16:45:18.608Z,3.22
2023-03-11T16:49:31.351Z,3.24
2023-03-11T16:53:43.912Z,3.11
2023-03-11T16:57:58.175Z,3.06
2023-03-11T17:02:12.668Z,3.00
2023-03-11T17:06:25.212Z,2.93
2023-03-11T17:10:44.274Z,2.92
2023-03-11T17:14:57.097Z,2.88
2023-03-11T17:19:09.694Z,2.87
2023-03-11T17:23:22.432Z,2.79
2023-03-11T17:27:34.980Z,2.72
2023-03-11T17:31:47.441Z,2.71
2023-03-11T17:36:08.289Z,2.70
2023-03-11T17:40:20.925Z,2.67
2023-03-11T17:44:50.040Z,2.61
2023-03-11T17:49:03.855Z,2.68
2023-03-11T17:53:16.384Z,2.60
2023-03-11T17:57:28.888Z,2.56
2023-03-11T18:01:41.347Z,2.31
2023-03-11T18:06:04.680Z,2.35
2023-03-11T18:10:17.596Z,2.20
2023-03-11T18:14:30.014Z,2.33
2023-03-11T18:18:43.744Z,2.23
2023-03-11T18:22:56.864Z,2.17
2023-03-11T18:27:09.311Z,2.24
2023-03-11T18:31:24.921Z,2.29
2023-03-11T18:35:37.435Z,2.14
2023-03-11T18:39:49.969Z,2.01
2023-03-11T18:44:03.539Z,1.71
2023-03-11T18:48:16.032Z,1.83
2023-03-11T18:52:29.020Z,1.65
2023-03-11T18:56:52.043Z,1.57
2023-03-11T19:01:14.688Z,1.64
2023-03-11T19:05:28.964Z,1.48
2023-03-11T19:09:50.812Z,1.28
2023-03-11T19:14:03.670Z,1.26
2023-03-11T19:18:16.470Z,1.31
2023-03-11T19:22:28.935Z,1.37
2023-03-11T19:26:45.305Z,1.47
2023-03-11T19:31:08.406Z,1.54
2023-03-11T19:35:22.712Z,1.51
2023-03-11T19:39:35.156Z,1.59
2023-03-11T19:43:48.590Z,1.61
2023-03-11T19:48:01.519Z,1.55
2023-03-11T19:52:14.461Z,1.67
2023-03-11T19:56:28.398Z,1.34
2023-03-11T20:00:42.523Z,1.24
2023-03-11T20:04:55.168Z,1.08
2023-03-11T20:09:07.842Z,0.99
2023-03-11T20:13:22.904Z,0.87
2023-03-11T20:17:35.521Z,0.84
2023-03-11T20:21:48.054Z,0.73
2023-03-11T20:26:00.837Z,0.68
2023-03-11T20:30:14.162Z,0.56
2023-03-11T20:34:26.682Z,0.45
2023-03-11T20:38:39.461Z,0.42
2023-03-11T20:42:52.056Z,0.30
2023-03-11T20:47:04.873Z,0.10
2023-03-11T20:51:21.096Z,0.03
2023-03-11T20:55:33.519Z,-0.20
2023-03-11T20:59:45.984Z,-0.22
2023-03-11T21:04:02.112Z,-0.32
2023-03-11T21:08:23.554Z,-0.33
2023-03-11T21:12:36.071Z,-0.57
2023-03-11T21:16:49.154Z,-0.69
2023-03-11T21:21:02.455Z,-0.74
2023-03-11T21:25:15.180Z,-0.90
2023-03-11T21:29:27.705Z,-0.80
2023-03-11T21:33:41.848Z,-0.82
2023-03-11T21:37:55.188Z,-0.88
2023-03-11T21:42:08.001Z,-0.74
2023-03-11T21:46:25.761Z,-0.62
2023-03-11T21:50:42.224Z,-0.45
2023-03-11T21:54:54.907Z,-0.44
2023-03-11T21:59:08.587Z,-0.33
2023-03-11T22:03:21.323Z,-0.19
2023-03-11T22:07:43.894Z,-0.22
2023-03-11T22:11:56.976Z,-0.47
2023-03-11T22:16:09.741Z,-0.60
2023-03-11T22:20:22.986Z,-0.59
2023-03-11T22:24:35.471Z,-0.32
2023-03-11T22:28:48.126Z,-0.20
2023-03-11T22:33:00.591Z,-0.05
2023-03-11T22:37:13.188Z,0.05
2023-03-11T22:41:29.787Z,0.11
2023-03-11T22:45:42.284Z,0.21
2023-03-11T22:49:54.776Z,0.18
2023-03-11T22:54:07.401Z,0.18
2023-03-11T22:58:21.601Z,0.18
2023-03-11T23:02:34.069Z,-0.03
2023-03-11T23:06:46.500Z,-0.11
2023-03-11T23:11:04.818Z,-0.38
2023-03-11T23:15:19.626Z,-0.55
2023-03-11T23:19:32.216Z,-0.44
2023-03-11T23:23:44.767Z,-0.55
2023-03-11T23:27:57.817Z,-0.63
2023-03-11T23:32:12.721Z,-0.33
2023-03-11T23:36:28.387Z,-0.06
2023-03-11T23:40:42.355Z,0.04
2023-03-11T23:44:55.020Z,0.15
2023-03-11T23:49:07.466Z,0.16
2023-03-11T23:53:23.929Z,0.27
2023-03-11T23:57:37.459Z,0.15
